Ana Sayfa
METAR-TAF:

METAR-TAF

Havaalanları :

Juneau, Alaska, Amerika Birleşik Devletleri

Enlem: 58-21-17N, Boylam: 134-34-34W, yükseklik: 6 m

Güncel hava durumu gözlemi

Rapor saat 08:53 UTC de 30 dakika önce yapıldı.
Sakin rüzgar
Sıcaklık -1°C
Nem 100%
Basınç 1000 hPa
Görüş mesafesi: 16.1 km
4200 ft yükseklikte çok bulutlu

METAR: PAJN 190853Z 00000KT 10SM OVC042 M01/M01 A2953 RMK AO2 SLP001 T10061006 400061056 51016

Saat: 00:23 (09:23 UTC)

Tahmin

Rapor saat 05:32 UTC de 3 saat ve 51 dakika önce yapıldı.
Ayın 19'si saat 06 UTC'den ayın 20'si saat 06 UTC'ye kadar geçerli Tahmin
Rüzgar kuzeydan kt
Görüş mesafesi: 10 km
5000 ft yükseklikte parçalı bulutlu
7000 ft yükseklikte çok bulutlu
Ayın 20'si saat 0000 UTC'den
Rüzgar değişken yönden 3 kt
Görüş mesafesi: 10 km
4000 ft yükseklikte parçalı çok bulutlu
Civarda sağanaklar

TAF: PAJN 190532Z 1906/2006 00000KT P6SM SCT050 OVC070 FM200000 VRB03KT P6SM VCSH BKN040

4.000'den fazla havaalanı için hava durumu gözlemleri ve tahminleri (METAR ve TAF raporları).

Kullanılabilir istasyonlar harita üzerinde sarı ve kırmızı noktalarla gösterilir.

İstasyonun adını görmek için fareyi noktanın üzerinde gezdirin.

Sonrasında hava gözlem ve tahminlerini görmek için tıklayın.

Haritayı değiştirmek için: yaklaştırmak için siyah artı işaretli yeşil düğmeye ve uzaklaştırmak için de eksi işaretli düğmeye hızla tıklayın; bitişik haritalar için yeşil okları kullanın.


METAR-TAF: